Time;durP1;ratioP1;P1;durP2;ratioP2;P2;SDS_P1;SDS_P2;PMS_P1;PMS_P2;Temp;Humidity;BMP_temperature;BMP_pressure;BME280_temperature;BME280_humidity;BME280_pressure;Samples;Min_cycle;Max_cycle;Signal;HPM_P1;HPM_P2
2022/10/30 00:01:24;;;;;;;25.75;16.25;;;;;;;17.13;69.66;101981.25;4989789;28;20053;-80
2022/10/30 00:03:51;;;;;;;25.80;16.98;;;;;;;17.27;69.29;102018.38;4991283;28;20123;-79
2022/10/30 00:06:18;;;;;;;27.27;16.52;;;;;;;17.33;68.95;102024.97;4990469;28;20362;-81
2022/10/30 00:08:45;;;;;;;31.73;16.60;;;;;;;17.30;68.71;101999.28;4993023;28;20053;-78
2022/10/30 00:11:15;;;;;;;25.83;16.58;;;;;;;17.43;68.94;102020.47;5007508;28;20049;-80
2022/10/30 00:13:43;;;;;;;28.25;15.40;;;;;;;17.14;69.61;101977.59;5010745;28;20140;-84
2022/10/30 00:16:15;;;;;;;24.55;15.70;;;;;;;17.31;69.58;102022.47;4991593;28;20076;-80
2022/10/30 00:18:42;;;;;;;20.95;14.85;;;;;;;17.06;69.63;101995.28;5010638;28;20335;-82
2022/10/30 00:21:19;;;;;;;26.15;15.52;;;;;;;17.28;69.69;102007.50;4993302;28;20061;-80
2022/10/30 00:23:49;;;;;;;20.30;14.90;;;;;;;16.78;69.09;101929.97;4996200;28;20049;-81
2022/10/30 00:26:20;;;;;;;26.27;16.08;;;;;;;16.94;69.52;101956.16;4993499;28;20584;-80
2022/10/30 00:28:51;;;;;;;25.27;16.27;;;;;;;17.11;69.94;101984.09;4995743;28;20049;-80
2022/10/30 00:31:23;;;;;;;23.00;16.10;;;;;;;17.13;69.88;102011.63;4996762;28;20049;-80
2022/10/30 00:33:52;;;;;;;26.27;14.00;;;;;;;16.85;70.00;101957.06;4996429;28;20537;-78
2022/10/30 00:36:19;;;;;;;25.17;15.70;;;;;;;17.14;69.38;101989.19;4997445;28;20132;-80
2022/10/30 00:38:46;;;;;;;20.98;14.18;;;;;;;17.22;69.20;102009.91;5010273;28;20111;-81
2022/10/30 00:41:20;;;;;;;19.92;14.65;;;;;;;16.98;70.08;101978.19;4995401;28;20380;-81
2022/10/30 00:43:47;;;;;;;21.25;14.20;;;;;;;17.02;70.34;101998.41;4994244;28;20090;-80
2022/10/30 00:46:34;;;;;;;23.88;15.35;;;;;;;17.07;69.89;102009.53;4995375;28;20219;-81
2022/10/30 00:49:11;;;;;;;25.10;16.85;;;;;;;17.02;69.96;102009.13;4984964;28;20080;-81
2022/10/30 00:51:42;;;;;;;24.63;14.85;;;;;;;16.96;70.21;102009.69;4992263;28;20087;-81
2022/10/30 00:54:16;;;;;;;22.73;14.30;;;;;;;16.82;70.28;101987.69;4994035;28;20053;-79
2022/10/30 00:56:50;;;;;;;21.35;14.88;;;;;;;16.66;70.34;101964.09;4994770;28;20076;-80
2022/10/30 00:59:25;;;;;;;30.08;16.52;;;;;;;16.92;69.79;102009.16;4991701;28;20053;-77
2022/10/30 01:01:56;;;;;;;21.88;14.50;;;;;;;16.90;69.90;102004.91;4989428;28;20089;-80
2022/10/30 01:04:25;;;;;;;25.97;15.40;;;;;;;16.85;69.62;102008.88;4992474;28;20058;-79
2022/10/30 01:06:58;;;;;;;23.05;13.65;;;;;;;15.92;69.69;101848.66;5011980;28;20167;-81
2022/10/30 01:09:25;;;;;;;26.20;14.30;;;;;;;16.72;69.28;101983.28;4988103;28;20049;-81
2022/10/30 01:11:52;;;;;;;23.67;14.10;;;;;;;16.25;69.47;101906.31;5009079;28;20053;-81
2022/10/30 01:14:20;;;;;;;23.70;14.00;;;;;;;16.74;69.71;101995.56;5010373;28;20537;-80
2022/10/30 01:17:25;;;;;;;22.10;13.43;;;;;;;16.37;69.49;101933.81;4988410;28;20205;-82
2022/10/30 01:20:10;;;;;;;22.55;12.05;;;;;;;16.72;68.88;101994.84;4986562;28;20060;-79
2022/10/30 01:22:58;;;;;;;22.75;14.10;;;;;;;16.72;69.13;102005.59;4970328;28;20284;-78
2022/10/30 01:25:37;;;;;;;22.00;13.63;;;;;;;16.75;69.49;101991.91;4970858;28;20050;-79
2022/10/30 01:28:25;;;;;;;22.55;12.85;;;;;;;16.47;69.16;101952.56;4970256;28;20050;-78
2022/10/30 01:31:21;;;;;;;19.92;12.93;;;;;;;16.65;68.89;101985.69;4989250;28;20450;-81
2022/10/30 01:34:24;;;;;;;20.30;13.25;;;;;;;16.61;69.13;101984.31;4966581;28;20058;-81
2022/10/30 01:37:09;;;;;;;19.92;12.90;;;;;;;16.52;69.54;101959.19;4973036;28;20085;-81
2022/10/30 01:39:38;;;;;;;18.55;12.77;;;;;;;16.41;69.58;101944.09;5007427;28;20064;-81
2022/10/30 01:42:29;;;;;;;21.40;12.38;;;;;;;16.30;69.45;101925.50;4991067;28;20045;-79
2022/10/30 01:44:56;;;;;;;14.98;11.55;;;;;;;16.59;69.22;101973.72;4989363;28;20059;-77
2022/10/30 01:47:42;;;;;;;16.95;12.20;;;;;;;16.34;68.96;101940.31;4990528;28;20965;-81
2022/10/30 01:50:24;;;;;;;21.60;12.43;;;;;;;16.46;69.32;101962.44;5008934;28;20067;-79
2022/10/30 01:52:57;;;;;;;;;;;;;;;16.49;69.46;101972.88;5008950;28;20119;-81
2022/10/30 01:56:04;;;;;;;18.90;12.88;;;;;;;16.45;69.51;101964.25;4988849;28;20245;-81
2022/10/30 01:59:16;;;;;;;19.60;12.82;;;;;;;16.39;68.99;101950.59;4990329;28;20516;-81
2022/10/30 02:01:43;;;;;;;18.38;11.45;;;;;;;16.31;68.81;101942.41;4990171;28;20424;-78
2022/10/30 02:04:13;;;;;;;16.92;10.65;;;;;;;16.09;69.20;101903.34;4981882;28;20065;-80
2022/10/30 02:06:44;;;;;;;16.73;10.98;;;;;;;16.28;68.73;101940.00;4990951;28;20068;-80
2022/10/30 02:09:16;;;;;;;19.10;11.18;;;;;;;16.35;68.90;101954.53;5005753;28;20349;-78
2022/10/30 02:11:45;;;;;;;16.13;11.43;;;;;;;15.17;68.46;101758.16;4991968;28;20054;-79
2022/10/30 02:14:22;;;;;;;17.73;10.60;;;;;;;15.78;68.68;101855.28;4991216;28;20355;-81
2022/10/30 02:16:53;;;;;;;17.27;10.85;;;;;;;16.16;68.75;101912.50;4991386;28;20458;-79
2022/10/30 02:19:23;;;;;;;19.85;10.25;;;;;;;16.42;68.44;101951.16;4996397;28;20611;-80
2022/10/30 02:21:53;;;;;;;15.63;10.40;;;;;;;16.43;68.46;101958.22;4991387;28;20657;-82
2022/10/30 02:24:21;;;;;;;16.60;9.68;;;;;;;16.24;68.43;101931.44;4989234;28;20049;-77
2022/10/30 02:26:48;;;;;;;16.48;9.98;;;;;;;16.20;67.75;101914.78;4993684;28;20077;-80
2022/10/30 02:29:14;;;;;;;12.95;9.80;;;;;;;16.30;68.04;101941.56;4990198;28;20054;-80
2022/10/30 02:31:41;;;;;;;16.67;9.52;;;;;;;16.04;67.79;101893.06;4991624;28;20319;-81
2022/10/30 02:34:08;;;;;;;14.23;8.23;;;;;;;16.33;67.88;101940.44;4989504;28;20148;-79
2022/10/30 02:36:35;;;;;;;13.02;9.57;;;;;;;16.48;68.34;101959.59;4992900;28;20152;-79
2022/10/30 02:39:08;;;;;;;20.75;9.32;;;;;;;16.58;67.41;101960.47;4973340;28;20228;-80
2022/10/30 02:41:35;;;;;;;18.02;10.13;;;;;;;16.41;67.21;101920.00;4972173;28;20049;-79
2022/10/30 02:44:03;;;;;;;14.30;9.25;;;;;;;16.55;67.71;101945.50;4972943;28;20062;-81
2022/10/30 02:46:34;;;;;;;15.80;9.27;;;;;;;16.54;67.58;101959.88;4970841;28;20165;-80
2022/10/30 02:49:01;;;;;;;14.05;9.98;;;;;;;16.29;67.96;101926.50;4987404;28;20137;-80
2022/10/30 02:51:31;;;;;;;22.42;9.77;;;;;;;15.97;67.62;101866.00;4992251;28;20157;-80
2022/10/30 02:53:59;;;;;;;13.48;9.35;;;;;;;16.41;68.42;101952.16;4993617;28;20058;-80
2022/10/30 02:56:28;;;;;;;18.30;9.15;;;;;;;16.30;68.70;101930.84;4994069;28;20139;-81
2022/10/30 02:59:04;;;;;;;11.52;8.88;;;;;;;15.87;68.30;101870.50;5003378;28;20141;-80
2022/10/30 03:01:33;;;;;;;17.65;8.80;;;;;;;16.35;68.42;101950.03;4999320;28;20538;-80
2022/10/30 03:04:03;;;;;;;14.95;9.38;;;;;;;16.36;67.56;101949.06;4991082;28;20396;-80
2022/10/30 03:06:31;;;;;;;12.50;8.82;;;;;;;16.20;67.80;101930.00;4988946;28;20064;-78
2022/10/30 03:08:57;;;;;;;13.15;8.40;;;;;;;16.31;67.78;101940.59;4987023;28;20060;-81
2022/10/30 03:11:25;;;;;;;13.70;9.23;;;;;;;16.32;67.83;101950.31;4989416;28;20069;-80
2022/10/30 03:13:53;;;;;;;11.93;8.52;;;;;;;16.19;67.50;101931.84;4988380;28;20064;-79
2022/10/30 03:16:23;;;;;;;14.88;8.73;;;;;;;16.27;67.53;101947.22;4991542;28;20135;-80
2022/10/30 03:18:53;;;;;;;12.20;9.20;;;;;;;15.96;67.46;101898.28;4993371;28;20611;-82
2022/10/30 03:21:21;;;;;;;13.98;9.27;;;;;;;15.32;67.35;101792.53;4990326;28;20113;-80
2022/10/30 03:23:51;;;;;;;15.45;8.95;;;;;;;16.28;67.33;101950.72;4991340;28;20050;-79
2022/10/30 03:26:19;;;;;;;16.05;9.50;;;;;;;16.13;67.84;101926.19;4990304;28;20910;-79
2022/10/30 03:28:47;;;;;;;18.27;9.65;;;;;;;15.60;68.05;101858.59;4991219;28;20678;-79
2022/10/30 03:31:16;;;;;;;14.85;9.95;;;;;;;16.23;68.00;101952.00;4991292;28;20058;-81
2022/10/30 03:33:44;;;;;;;24.73;9.70;;;;;;;16.20;67.95;101956.81;4990453;28;20058;-81
2022/10/30 03:36:12;;;;;;;11.20;8.50;;;;;;;15.85;68.00;101899.25;4991346;28;20049;-79
2022/10/30 03:38:42;;;;;;;13.63;9.18;;;;;;;14.89;67.91;101748.22;4975132;28;20136;-80
2022/10/30 03:41:09;;;;;;;15.50;9.18;;;;;;;15.95;68.19;101915.34;4971204;28;20043;-79
2022/10/30 03:43:36;;;;;;;14.20;10.30;;;;;;;16.27;67.44;101957.94;4971438;28;20387;-80
2022/10/30 03:46:03;;;;;;;15.95;9.68;;;;;;;16.28;67.89;101959.59;4971617;28;20544;-80
2022/10/30 03:48:30;;;;;;;15.70;9.65;;;;;;;16.26;67.76;101963.41;4983276;28;20076;-78
2022/10/30 03:50:58;;;;;;;18.38;9.98;;;;;;;16.20;67.83;101967.50;4990936;28;20309;-78
2022/10/30 03:53:27;;;;;;;14.68;8.65;;;;;;;16.02;67.76;101945.94;4987822;28;20637;-79
2022/10/30 03:55:59;;;;;;;16.15;9.40;;;;;;;16.03;67.75;101959.19;4990097;28;20416;-81
2022/10/30 03:58:28;;;;;;;13.38;9.02;;;;;;;15.93;67.73;101942.25;4989589;28;20046;-80
2022/10/30 04:01:02;;;;;;;13.38;9.38;;;;;;;15.99;67.79;101967.63;4993067;28;20522;-81
2022/10/30 04:03:33;;;;;;;17.58;8.75;;;;;;;15.81;68.06;101935.31;4989447;28;20670;-80
2022/10/30 04:06:00;;;;;;;14.70;8.77;;;;;;;15.81;68.21;101935.31;4988514;28;20060;-79
2022/10/30 04:08:28;;;;;;;13.35;8.40;;;;;;;15.82;67.61;101942.38;4990023;28;20128;-78
2022/10/30 04:10:55;;;;;;;15.30;8.27;;;;;;;15.70;67.61;101922.03;4990990;28;20071;-80
2022/10/30 04:13:22;;;;;;;17.58;7.93;;;;;;;15.90;67.77;101961.28;4989736;28;20492;-80
2022/10/30 04:15:49;;;;;;;13.45;9.35;;;;;;;15.60;67.51;101916.63;4987577;28;20381;-79
2022/10/30 04:18:26;;;;;;;17.08;8.18;;;;;;;15.73;67.08;101937.84;4988073;28;20057;-79
2022/10/30 04:20:54;;;;;;;12.25;8.55;;;;;;;15.60;67.13;101922.84;4989408;28;20049;-80
2022/10/30 04:23:24;;;;;;;11.88;7.57;;;;;;;15.36;67.28;101882.22;4986680;28;20116;-82
2022/10/30 04:25:51;;;;;;;12.05;7.50;;;;;;;15.89;67.17;101970.28;4986889;28;20586;-79
2022/10/30 04:28:23;;;;;;;11.75;7.25;;;;;;;15.55;66.82;101914.38;4985967;28;20133;-79
2022/10/30 04:30:50;;;;;;;11.50;7.85;;;;;;;15.58;67.41;101911.44;4990698;28;20073;-79
2022/10/30 04:33:18;;;;;;;12.27;7.20;;;;;;;15.32;67.36;101876.28;4987687;28;20050;-79
2022/10/30 04:35:44;;;;;;;13.23;7.85;;;;;;;15.46;67.27;101899.16;4991197;28;20081;-80
2022/10/30 04:38:13;;;;;;;11.15;7.05;;;;;;;15.90;67.57;101971.13;4988589;28;20049;-80
2022/10/30 04:40:42;;;;;;;13.00;7.57;;;;;;;15.71;67.00;101943.34;4991154;28;20053;-79
2022/10/30 04:43:10;;;;;;;10.38;6.57;;;;;;;15.36;67.08;101891.09;4990445;28;20056;-79
2022/10/30 04:45:41;;;;;;;13.27;7.57;;;;;;;15.76;66.78;101951.81;4993372;28;20128;-79
2022/10/30 04:48:13;;;;;;;11.88;6.97;;;;;;;15.86;67.12;101975.09;4988250;28;20516;-78
2022/10/30 04:50:40;;;;;;;9.73;7.18;;;;;;;15.72;66.92;101952.22;4989568;28;20201;-80
2022/10/30 04:53:14;;;;;;;14.05;7.30;;;;;;;15.71;67.10;101950.53;4989279;28;20053;-79
2022/10/30 04:55:43;;;;;;;11.10;7.03;;;;;;;15.71;66.57;101946.03;4990325;28;20081;-79
2022/10/30 04:58:11;;;;;;;12.05;7.70;;;;;;;15.20;66.62;101865.84;4987162;28;20558;-80
2022/10/30 05:00:40;;;;;;;15.68;7.80;;;;;;;15.76;66.54;101953.63;4988347;28;20143;-80
2022/10/30 05:03:16;;;;;;;11.88;7.20;;;;;;;15.11;66.77;101857.63;4988102;28;20394;-80
2022/10/30 05:05:43;;;;;;;14.57;7.20;;;;;;;15.70;66.53;101955.00;4987425;28;20703;-80
2022/10/30 05:08:10;;;;;;;10.50;6.43;;;;;;;15.51;66.34;101928.16;5001887;28;20756;-80
2022/10/30 05:10:40;;;;;;;11.65;7.45;;;;;;;15.56;66.89;101947.38;5004626;28;20459;-79
2022/10/30 05:13:10;;;;;;;17.25;7.85;;;;;;;15.49;66.60;101931.00;5005201;28;20061;-80
2022/10/30 05:15:37;;;;;;;10.50;7.25;;;;;;;15.71;66.26;101953.22;4995461;28;20053;-79
2022/10/30 05:18:04;;;;;;;10.95;6.68;;;;;;;15.67;66.63;101944.56;4989619;28;20049;-76
2022/10/30 05:20:33;;;;;;;12.82;7.05;;;;;;;15.66;66.86;101947.38;5002186;28;20420;-80
2022/10/30 05:23:03;;;;;;;15.48;6.85;;;;;;;15.64;67.11;101955.53;5003770;28;20591;-80
2022/10/30 05:25:30;;;;;;;10.80;7.57;;;;;;;15.55;66.89;101930.44;5010325;28;20429;-78
2022/10/30 05:28:01;;;;;;;14.10;7.90;;;;;;;15.70;66.30;101956.84;5009338;28;20373;-79
2022/10/30 05:30:32;;;;;;;10.55;6.88;;;;;;;15.30;66.59;101893.47;5013284;28;20053;-80
2022/10/30 05:33:01;;;;;;;11.63;6.20;;;;;;;15.71;66.42;101961.25;5010799;28;20553;-79
2022/10/30 05:35:33;;;;;;;12.55;7.43;;;;;;;15.70;66.36;101956.84;5011968;28;20561;-78
2022/10/30 05:38:04;;;;;;;12.27;6.75;;;;;;;15.60;66.73;101946.94;4995001;28;20080;-81
2022/10/30 05:40:32;;;;;;;13.48;7.63;;;;;;;15.68;66.89;101959.66;4989517;28;20057;-79
2022/10/30 05:42:59;;;;;;;13.30;6.95;;;;;;;15.56;66.97;101940.16;4985207;28;20172;-78
2022/10/30 05:45:32;;;;;;;13.50;6.57;;;;;;;15.15;66.53;101875.13;4985288;28;20293;-78
2022/10/30 05:48:05;;;;;;;10.15;6.68;;;;;;;15.63;66.21;101953.00;4979599;28;20057;-80
2022/10/30 05:50:38;;;;;;;13.10;7.28;;;;;;;15.65;66.35;101959.06;5009481;28;20476;-79
2022/10/30 05:53:06;;;;;;;10.02;6.20;;;;;;;15.64;66.04;101960.06;4989985;28;20281;-78
2022/10/30 05:55:33;;;;;;;10.63;6.32;;;;;;;15.49;65.79;101941.69;4983545;28;20155;-81
2022/10/30 05:58:07;;;;;;;8.70;6.70;;;;;;;15.11;65.95;101871.00;4983125;28;20089;-81
2022/10/30 06:00:35;;;;;;;10.85;6.70;;;;;;;15.28;66.22;101895.44;4990781;28;20058;-79
2022/10/30 06:03:09;;;;;;;13.65;6.60;;;;;;;15.11;66.06;101871.00;4990983;28;20113;-79
2022/10/30 06:05:36;;;;;;;15.35;6.63;;;;;;;15.34;65.65;101902.91;5006031;28;20557;-80
2022/10/30 06:08:07;;;;;;;11.70;5.78;;;;;;;15.49;65.10;101930.16;5009297;28;20140;-80
2022/10/30 06:10:54;;;;;;;11.95;6.75;;;;;;;15.58;64.96;101951.59;5017375;28;20050;-78
2022/10/30 06:13:20;;;;;;;12.23;5.97;;;;;;;15.75;65.86;101973.34;4995708;28;20088;-79
2022/10/30 06:15:48;;;;;;;16.52;6.93;;;;;;;15.76;66.13;101967.88;5007704;28;20292;-79
2022/10/30 06:18:16;;;;;;;13.77;6.63;;;;;;;15.54;65.11;101939.47;4978964;28;20624;-80
2022/10/30 06:20:47;;;;;;;11.57;6.80;;;;;;;15.81;65.49;101978.16;4971385;28;20121;-80
2022/10/30 06:23:14;;;;;;;12.02;6.85;;;;;;;15.32;65.06;101900.38;4971634;28;20324;-80
2022/10/30 06:25:41;;;;;;;10.48;6.43;;;;;;;15.55;65.52;101937.63;4974922;28;20144;-79
2022/10/30 06:28:12;;;;;;;12.00;6.30;;;;;;;15.67;65.45;101957.09;4983161;28;20054;-80
2022/10/30 06:30:43;;;;;;;16.55;7.07;;;;;;;15.56;64.86;101932.16;5009787;28;20550;-81
2022/10/30 06:33:10;;;;;;;13.98;5.88;;;;;;;14.92;64.47;101823.66;5020324;28;20855;-79
2022/10/30 06:35:37;;;;;;;7.80;5.82;;;;;;;15.86;64.78;101975.94;5021197;28;20056;-80
2022/10/30 06:38:04;;;;;;;9.15;5.75;;;;;;;15.92;64.35;101979.88;5013081;28;20061;-79
2022/10/30 06:40:33;;;;;;;9.75;6.47;;;;;;;15.93;64.74;101979.75;5019102;28;20069;-79
2022/10/30 06:43:00;;;;;;;13.90;6.03;;;;;;;15.49;64.20;101890.00;5014737;28;20049;-79
2022/10/30 06:45:27;;;;;;;10.63;5.40;;;;;;;16.00;65.07;101974.69;5021845;28;20060;-79
2022/10/30 06:47:54;;;;;;;10.57;5.70;;;;;;;16.11;65.55;101981.75;5013946;28;20136;-79
2022/10/30 06:50:23;;;;;;;11.48;5.70;;;;;;;16.13;64.92;101983.28;5019338;28;20046;-80
2022/10/30 06:52:55;;;;;;;11.68;6.47;;;;;;;16.18;65.08;101990.91;4997001;28;20046;-78
2022/10/30 06:55:22;;;;;;;15.60;5.90;;;;;;;15.85;65.20;101936.75;4999286;28;20288;-80
2022/10/30 06:57:53;;;;;;;12.80;5.70;;;;;;;15.67;64.61;101898.22;5019288;28;20046;-78
2022/10/30 07:00:21;;;;;;;11.30;6.25;;;;;;;15.82;65.09;101910.22;5002408;28;20061;-80
2022/10/30 07:02:58;;;;;;;10.90;6.28;;;;;;;16.32;64.90;102003.06;4997672;28;20045;-80
2022/10/30 07:05:26;;;;;;;11.98;6.05;;;;;;;16.12;64.80;101956.66;5015501;28;20420;-80
2022/10/30 07:07:55;;;;;;;9.60;6.15;;;;;;;16.25;64.76;101970.63;4999141;28;20081;-79
2022/10/30 07:10:22;;;;;;;9.40;5.93;;;;;;;16.31;64.69;101978.09;4994981;28;20152;-80
2022/10/30 07:12:53;;;;;;;12.63;6.32;;;;;;;16.49;64.28;101999.69;4990875;28;20148;-78
2022/10/30 07:15:21;;;;;;;17.48;5.78;;;;;;;16.05;64.04;101924.22;4991482;28;20061;-77
2022/10/30 07:17:57;;;;;;;13.45;7.50;;;;;;;16.37;63.50;101960.63;4990022;28;20050;-82
2022/10/30 07:20:29;;;;;;;11.27;6.35;;;;;;;16.45;63.17;101966.09;4993452;28;20192;-77
2022/10/30 07:22:59;;;;;;;11.10;6.32;;;;;;;16.40;63.74;101949.59;4984336;28;20515;-78
2022/10/30 07:25:27;;;;;;;7.63;6.25;;;;;;;16.76;64.83;102001.63;4990534;28;20096;-78
2022/10/30 07:27:57;;;;;;;13.13;6.32;;;;;;;16.41;64.81;101933.38;4987749;28;20812;-81
2022/10/30 07:30:25;;;;;;;15.43;6.83;;;;;;;16.85;65.06;101998.13;4970424;28;20060;-78
2022/10/30 07:33:04;;;;;;;9.55;6.00;;;;;;;16.65;64.53;101953.53;4973253;28;20054;-78
2022/10/30 07:35:33;;;;;;;13.70;5.82;;;;;;;16.96;64.63;102007.00;4990582;28;20056;-79
2022/10/30 07:38:05;;;;;;;10.57;5.63;;;;;;;17.01;63.90;102002.06;4979970;28;20103;-80
2022/10/30 07:40:33;;;;;;;12.27;5.85;;;;;;;16.94;64.76;101988.38;4993434;28;20081;-80
2022/10/30 07:43:05;;;;;;;9.15;6.05;;;;;;;16.82;64.52;101963.56;4992094;28;20049;-79
2022/10/30 07:45:35;;;;;;;11.80;6.93;;;;;;;16.33;64.19;101871.59;4992937;28;20108;-78
2022/10/30 07:48:01;;;;;;;8.95;5.82;;;;;;;17.13;64.79;101979.44;4975031;28;20061;-82
2022/10/30 07:50:29;;;;;;;9.75;6.13;;;;;;;17.32;64.08;102004.53;4981399;28;20188;-81
2022/10/30 07:52:56;;;;;;;10.55;6.35;;;;;;;17.29;63.19;101986.88;4983970;28;20208;-82
2022/10/30 07:55:28;;;;;;;11.68;6.05;;;;;;;17.27;63.29;101973.59;4976558;28;20056;-80
2022/10/30 07:58:00;;;;;;;15.50;5.00;;;;;;;17.49;61.70;102001.06;4979183;28;20536;-80
2022/10/30 08:00:32;;;;;;;9.90;7.82;;;;;;;17.27;61.46;101952.13;4982638;28;20045;-82
2022/10/30 08:03:08;;;;;;;13.02;7.55;;;;;;;17.67;60.63;102001.97;4987253;28;20523;-81
2022/10/30 08:05:36;;;;;;;11.75;6.57;;;;;;;17.75;60.49;102003.91;4981323;28;20045;-79
2022/10/30 08:08:04;;;;;;;9.25;5.65;;;;;;;17.80;59.92;101996.28;4982379;28;20382;-82
2022/10/30 08:10:31;;;;;;;10.73;6.88;;;;;;;17.78;59.22;101974.06;4982973;28;20487;-79
2022/10/30 08:12:58;;;;;;;15.00;9.70;;;;;;;17.97;59.08;101981.19;4978081;28;20142;-81
2022/10/30 08:15:26;;;;;;;15.45;8.85;;;;;;;17.91;58.28;101950.41;5001796;28;20335;-80
2022/10/30 08:17:55;;;;;;;12.40;8.70;;;;;;;17.07;58.23;101795.75;4978797;28;20874;-82
2022/10/30 08:20:23;;;;;;;12.10;7.88;;;;;;;18.57;57.31;102011.00;4983884;28;20566;-79
2022/10/30 08:22:52;;;;;;;15.80;8.18;;;;;;;18.62;56.89;102007.88;4983166;28;20070;-81
2022/10/30 08:25:23;;;;;;;11.63;8.00;;;;;;;18.37;57.19;101958.38;4983619;28;20208;-79
2022/10/30 08:27:54;;;;;;;16.25;8.70;;;;;;;18.52;56.61;101959.53;4982409;28;20497;-80
2022/10/30 08:30:23;;;;;;;17.25;8.32;;;;;;;18.60;56.01;101944.47;4996805;28;20080;-81
2022/10/30 08:32:49;;;;;;;11.20;6.40;;;;;;;18.43;55.35;101900.47;4997949;28;20053;-79
2022/10/30 08:35:16;;;;;;;11.88;6.15;;;;;;;18.76;53.80;101917.69;4981393;28;20491;-79
2022/10/30 08:37:54;;;;;;;10.82;5.22;;;;;;;19.42;53.25;101997.84;4974692;28;20169;-80
2022/10/30 08:40:29;;;;;;;12.23;5.80;;;;;;;19.44;53.36;101992.28;4945430;28;20056;-81
2022/10/30 08:43:01;;;;;;;10.00;6.05;;;;;;;19.14;53.21;101934.41;4984628;28;20056;-80
2022/10/30 08:45:28;;;;;;;7.38;5.07;;;;;;;19.40;53.55;101974.78;4961332;28;20286;-81
2022/10/30 08:48:02;;;;;;;8.77;4.90;;;;;;;19.17;53.13;101917.94;4972456;28;20164;-80
2022/10/30 08:50:30;;;;;;;10.38;5.75;;;;;;;19.81;52.85;101991.97;5003803;28;20130;-79
2022/10/30 08:53:08;;;;;;;11.57;5.47;;;;;;;19.84;51.81;101986.25;4988430;28;20053;-80
2022/10/30 08:55:38;;;;;;;12.07;5.82;;;;;;;19.93;51.50;101976.34;4985071;28;20135;-81
2022/10/30 08:58:14;;;;;;;8.45;5.22;;;;;;;19.50;51.38;101888.47;4986725;28;20463;-80
2022/10/30 09:00:40;;;;;;;15.05;5.50;;;;;;;19.69;51.00;101904.38;4985524;28;20059;-80
2022/10/30 09:03:07;;;;;;;11.73;5.47;;;;;;;20.29;50.66;101997.63;4988242;28;20073;-79
2022/10/30 09:05:36;;;;;;;12.40;5.28;;;;;;;19.78;50.98;101905.22;4989617;28;20430;-79
2022/10/30 09:08:02;;;;;;;8.98;5.60;;;;;;;20.31;50.67;101967.78;5007222;28;20056;-81
2022/10/30 09:10:30;;;;;;;10.60;6.43;;;;;;;20.26;50.18;101936.78;4990644;28;20458;-79
2022/10/30 09:13:04;;;;;;;16.80;5.93;;;;;;;20.52;49.77;101965.44;4984444;28;20128;-80
2022/10/30 09:15:32;;;;;;;;;;;;;;;20.81;48.67;101991.09;4990304;28;20152;-80
2022/10/30 09:18:03;;;;;;;14.02;6.05;;;;;;;20.89;48.75;101972.19;4987625;28;20177;-79
2022/10/30 09:20:30;;;;;;;8.45;5.47;;;;;;;20.78;49.09;101938.31;4988585;28;20625;-80
2022/10/30 09:23:23;;;;;;;15.38;5.82;;;;;;;20.95;49.15;101960.72;5072700;27;20993;-79
2022/10/30 09:25:55;;;;;;;10.25;6.03;;;;;;;20.56;49.27;101877.81;5048118;28;20079;-81
2022/10/30 09:28:22;;;;;;;17.25;6.25;;;;;;;20.72;48.90;101868.81;5038634;28;20052;-78
2022/10/30 09:30:55;;;;;;;11.00;5.78;;;;;;;21.06;48.42;101919.00;5045611;28;20053;-80
2022/10/30 09:33:22;;;;;;;12.63;6.38;;;;;;;21.57;48.38;101978.09;5050067;28;20546;-80
2022/10/30 09:35:56;;;;;;;13.63;6.25;;;;;;;21.31;47.87;101911.66;5035871;28;20485;-80
2022/10/30 09:38:23;;;;;;;16.55;6.45;;;;;;;21.70;48.26;101984.63;5037785;28;20059;-79
2022/10/30 09:40:56;;;;;;;14.75;5.72;;;;;;;21.85;48.32;101990.13;5038177;28;20060;-79
2022/10/30 09:43:43;;;;;;;10.38;5.10;;;;;;;21.76;47.61;101956.03;5032814;28;20053;-80
2022/10/30 09:46:38;;;;;;;12.75;6.25;;;;;;;21.76;48.02;101935.25;5037444;28;20056;-79
2022/10/30 09:49:08;;;;;;;12.48;6.57;;;;;;;22.26;48.02;101997.16;5053946;28;20368;-80
2022/10/30 09:52:14;;;;;;;12.98;5.70;;;;;;;22.36;47.83;101985.09;5056760;28;20138;-81
2022/10/30 09:54:41;;;;;;;10.98;6.60;;;;;;;22.53;47.54;101980.41;5058030;28;20083;-79
2022/10/30 09:57:18;;;;;;;12.60;6.78;;;;;;;21.67;46.71;101813.88;5056375;28;20540;-78
2022/10/30 10:00:17;;;;;;;15.38;7.07;;;;;;;22.92;45.96;101982.06;5055123;28;20052;-79
2022/10/30 10:03:22;;;;;;;15.45;7.00;;;;;;;23.04;45.55;101974.38;5054705;28;20155;-78
2022/10/30 10:06:00;;;;;;;11.60;6.63;;;;;;;23.14;45.66;101974.94;5056515;28;20233;-81
2022/10/30 10:08:35;;;;;;;12.75;6.32;;;;;;;23.27;45.97;101976.13;5054462;28;20234;-79
2022/10/30 10:11:12;;;;;;;10.95;7.00;;;;;;;23.35;45.60;101965.19;5037041;28;20229;-79
2022/10/30 10:14:12;;;;;;;15.45;6.70;;;;;;;23.56;44.71;101972.56;5030753;28;20448;-79
2022/10/30 10:16:41;;;;;;;12.15;6.45;;;;;;;23.68;44.25;101960.19;5024250;28;20056;-77
2022/10/30 10:19:29;;;;;;;11.07;6.55;;;;;;;23.84;43.72;101962.72;5034275;28;20136;-79
2022/10/30 10:22:01;;;;;;;16.33;6.67;;;;;;;23.92;43.99;101950.91;5031197;28;20056;-82
2022/10/30 10:24:33;;;;;;;13.32;5.95;;;;;;;24.07;43.95;101959.81;5034211;28;20478;-79
2022/10/30 10:27:21;;;;;;;20.00;7.85;;;;;;;24.28;43.48;101960.88;5034762;28;20589;-80
2022/10/30 10:30:21;;;;;;;10.07;6.00;;;;;;;24.34;43.27;101960.09;5032858;28;20053;-79
2022/10/30 10:33:25;;;;;;;16.80;6.57;;;;;;;24.51;42.25;101963.41;5034808;28;20503;-78
2022/10/30 10:36:08;;;;;;;19.00;6.97;;;;;;;24.27;42.74;101915.78;5021020;28;20053;-79
2022/10/30 10:38:44;;;;;;;14.48;7.22;;;;;;;24.67;43.01;101956.84;5018625;28;20057;-77
2022/10/30 10:41:45;;;;;;;17.08;7.88;;;;;;;24.73;42.81;101956.06;5031990;28;20171;-80
2022/10/30 10:44:44;;;;;;;14.98;8.75;;;;;;;24.84;43.19;101955.53;5020787;28;20687;-80
2022/10/30 10:47:34;;;;;;;17.83;8.48;;;;;;;24.55;42.33;101868.84;5041733;28;20044;-78
2022/10/30 10:50:10;;;;;;;12.80;7.68;;;;;;;25.02;42.53;101948.72;5024270;28;20055;-79
2022/10/30 10:52:42;;;;;;;12.07;7.43;;;;;;;24.98;42.58;101918.44;5040030;28;20348;-79
2022/10/30 10:55:17;;;;;;;15.55;9.00;;;;;;;25.06;42.55;101941.88;5037678;28;20110;-79
2022/10/30 10:57:50;;;;;;;21.42;10.13;;;;;;;24.95;42.55;101938.69;5021958;28;20105;-79
2022/10/30 11:00:21;;;;;;;18.73;10.15;;;;;;;24.34;43.09;101853.41;5034386;28;20052;-80
2022/10/30 11:03:02;;;;;;;13.90;8.52;;;;;;;24.40;43.97;101904.22;5032216;28;20142;-80
2022/10/30 11:05:41;;;;;;;21.63;13.25;;;;;;;24.44;44.17;101928.06;5032421;28;20079;-79
2022/10/30 11:08:19;;;;;;;15.38;9.98;;;;;;;24.27;43.98;101905.78;5040317;28;20060;-79
2022/10/30 11:10:50;;;;;;;20.83;9.27;;;;;;;24.18;44.58;101916.97;5028608;28;20057;-81
2022/10/30 11:13:19;;;;;;;13.87;8.97;;;;;;;23.81;45.05;101868.22;5017057;28;20084;-80
2022/10/30 11:16:03;;;;;;;;;;;;;;;23.95;45.43;101917.16;5017969;28;20167;-80
2022/10/30 11:18:31;;;;;;;;;;;;;;;23.88;45.77;101917.06;5010149;28;20216;-80
2022/10/30 11:21:07;;;;;;;23.35;15.23;;;;;;;23.81;45.72;101916.16;5016809;28;20507;-81
2022/10/30 11:23:43;;;;;;;19.20;11.20;;;;;;;23.69;46.41;101899.53;5015310;28;20049;-78
2022/10/30 11:26:17;;;;;;;23.60;9.75;;;;;;;23.83;45.76;101914.94;5015206;28;20160;-80
2022/10/30 11:28:51;;;;;;;16.27;10.43;;;;;;;23.55;46.05;101874.16;5001698;28;20068;-78
2022/10/30 11:31:33;;;;;;;24.70;10.65;;;;;;;23.77;46.27;101909.47;5016664;28;20200;-79
2022/10/30 11:34:16;;;;;;;16.90;10.73;;;;;;;23.65;45.81;101906.38;5012225;28;20779;-78
2022/10/30 11:36:49;;;;;;;18.10;10.15;;;;;;;23.73;45.73;101898.13;5011390;28;20144;-78
2022/10/30 11:39:31;;;;;;;21.83;11.80;;;;;;;23.48;46.07;101884.06;5020296;28;20545;-79
2022/10/30 11:41:57;;;;;;;;;;;;;;;23.46;46.83;101888.84;5017053;28;20518;-79